Current Mesonet Data Display

Graphs and maps are handy to obtain an immediate visual picture of what a weather variable has done over time and space. Sometimes a meteorologist needs the actual numbers and those can be displayed in a table. One dimension (across) of the table shows the weather parameters, the other (up and down) shows the different weather stations of the mesonet. This way a meteorologist can make easy comparisons between different parameters and between different locations. The table below displays the current conditions at all of the USA Mesonet stations (A more detailed display is available at the CHILI website)


Station Observation Time Temperature Dew Point Pressure Wind Speed Wind Direction
Agricola2024-06-24 02:01:11 76.05°F 74.98°F 29.94" 1.97 mph 246.07°
Andalusia2024-06-24 02:00:20 76.30°F 72.40°F 29.95" 4.46 mph 256.17°
Ashford North2024-06-24 02:00:04 77.12°F 73.16°F 29.94" 4.17 mph 273.71°
Atmore2024-06-24 02:00:11 77.81°F 74.41°F 29.95" 0.88 mph 245.09°
Bay Minette FS2024-06-24 01:59:57 79.18°F 76.21°F 29.97" 3.73 mph 297.24°
Bayou La Batre2024-06-24 02:00:17 81.87°F 78.79°F 29.96" 1.46 mph 248.54°
Castleberry2024-06-24 02:00:21 74.29°F 73.15°F 29.95" 0.00 mph 322.49°
Dixie2024-06-24 01:59:56 76.65°F 74.95°F 29.94" 1.32 mph 251.14°
Elberta2024-06-24 02:01:31 75.19°F 74.74°F 29.94" 1.32 mph 181.62°
Fairhope2024-06-24 02:00:20 81.40°F 76.51°F 29.95" 4.31 mph 229.24°
Florala2024-06-24 01:59:45 75.82°F 73.09°F 29.99" 0.58 mph 158.41°
Foley2024-06-24 02:03:05 78.40°F 76.48°F 29.94" 3.51 mph 187.24°
Gasque2024-06-24 02:00:13 81.48°F 77.97°F 29.94" 2.48 mph 228.64°
Geneva2024-06-24 02:00:13 76.52°F 72.80°F 29.94" 2.12 mph 287.37°
Grand Bay2024-06-24 02:00:17 76.23°F 73.60°F 29.94" 0.00 mph 153.96°
Jay2024-06-24 02:00:16 77.47°F 74.55°F 29.95" 2.78 mph 212.94°
Kinston2024-06-24 02:00:18 75.94°F 72.45°F 29.94" 3.22 mph 239.68°
Leakesville2024-06-24 02:02:35 77.15°F 74.64°F 29.95" 4.46 mph 245.56°
Loxley2024-06-24 02:02:36 77.67°F 76.10°F 29.96" 3.07 mph 248.93°
Mobile (Dog River)2024-06-24 02:00:31 78.88°F 75.35°F 29.95" 1.17 mph 237.97°
Mobile (USA Campus West)2024-06-24 02:00:16 79.73°F 75.24°F 29.96" 3.14 mph 244.45°
Mount Vernon2024-06-24 02:00:35 74.61°F 73.73°F 29.94" 0.00 mph 169.65°
Pascagoula2024-06-24 02:01:17 82.64°F 77.67°F 29.92" 3.58 mph 260.06°
Poarch Creek2024-06-24 02:00:16 76.52°F 73.70°F 29.93" 3.29 mph 247.60°
Robertsdale2024-06-24 02:00:10 76.70°F 76.07°F 29.93" 0.73 mph 195.26°
Saraland2024-06-24 02:00:50 79.31°F 74.95°F 29.93" 0.00 mph 223.55°